South Hill, Virginia
Current Conditions -  °F | °C
As of 3:16 PM on Friday 28 Nov 2014 (Local Time) from KAVC Reporting Station
Clear Clear  
Wind Chill: 42°   Ceiling: Unl
Heat Index: 42°   Visibility: 10mi
Dew Point: 19°   Wind: 3mph
Humidity: 41%   Direction: 300°WNW
Pressure: 30.34"   Gusts: NA
Location:  36.73°N, 78.13°W
Report Text: KAVC 282016Z AUTO 30003KT 10SM CLR 05/M07 A3034 RMK AO2 T00531070
Loading
Personal Weather Stations






























Interactive Weather Map New forecast layout! Learn more

10-Day Weather Forecast

Advertisements
Track Severe Weather on mobile